Nearby METAR Reports

 

KDWH - Houston/Dw Hooks, Texas, USA
Distance from station: WNW 3mi, 6km
Updated: 12/11/2019 12:53pm
Clear
Clear
 Wind from ENE
Wind: ENE 9 mph , 15 km/h
Temperature: 55°F , 13°C
Dew Point: 34°F , 1°C
Humidity: 44%
Barometer: 30.46 inHg , 1031.5 hPa
Clouds: Clear
Visibility: 10 miles , 16 km
2019/12/11 18:53 KDWH 111853Z 07008KT 020V100 10SM CLR 13/01 A3046 RMK AO2 SLP316 T01330011
KIAH - Houston/Intnl, Texas, USA
Distance from station: ESE 9mi, 14km
Updated: 12/11/2019 12:53pm
Clear
Clear
 Wind from NNE
Wind: NNE 12 mph , 19 km/h
Temperature: 57°F , 14°C
Dew Point: 36°F , 2°C
Humidity: 44%
Barometer: 30.46 inHg , 1031.5 hPa
Clouds: Clear
Visibility: 10 miles , 16 km
2019/12/11 18:53 KIAH 111853Z 03010KT 10SM CLR 14/02 A3046 RMK AO2 SLP316 T01390017
 
KCXO - Conroe, Texas, USA
Distance from station: NNE 21mi, 34km
Updated: 12/11/2019 12:53pm
Clear
Clear
 Wind from calm
Wind: Calm
Temperature: 54°F , 12°C
Dew Point: 36°F , 2°C
Humidity: 51%
Barometer: 30.48 inHg , 1032.2 hPa
Clouds: Clear
Visibility: 10 miles , 16 km
2019/12/11 18:53 KCXO 111853Z 00000KT 10SM CLR 12/02 A3048 RMK AO2 SLP321 T01220017
KMCJ - Houston/Univ, Texas, USA
Distance from station: SSE 24mi, 39km
Updated: 12/11/2019 1:15pm
Clear
Clear
 Wind from NNE
Wind: NNE 13 mph , 20 km/h
Temperature: 57°F , 14°C
Dew Point: 32°F , 0°C
Humidity: 39%
Barometer: 30.43 inHg , 1030.5 hPa
Clouds: Clear
Visibility: 10 miles , 16 km
2019/12/11 19:15 KMCJ 111915Z AUTO 03011KT 10SM CLR 14/00 A3043 RMK A01
 
KTME - Houston Exec, Texas, USA
Distance from station: SW 30mi, 48km
Updated: 12/11/2019 12:55pm
Clear
Clear
 Wind from NE
Wind: NE 14 mph , 22 km/h
Temperature: 55°F , 13°C
Dew Point: 36°F , 2°C
Humidity: 47%
Barometer: 30.47 inHg , 1031.8 hPa
Clouds: Clear
Visibility: 10 miles , 16 km
2019/12/11 18:55 KTME 111855Z AUTO 04012KT 10SM CLR 13/02 A3047 RMK AO2
KHOU - Houston/Hobby, Texas, USA
Distance from station: SSE 32mi, 51km
Updated: 12/11/2019 12:53pm
Clear
Clear
 Wind from NE
Wind: NE 9 mph , 15 km/h
Temperature: 55°F , 13°C
Dew Point: 36°F , 2°C
Humidity: 47%
Barometer: 30.44 inHg , 1030.8 hPa
Clouds: Clear
Visibility: 10 miles , 16 km
2019/12/11 18:53 KHOU 111853Z 05008KT 10SM CLR 13/02 A3044 RMK AO2 SLP314 T01280022
 
KSGR - Houston/Sugar La, Texas, USA
Distance from station: SSW 32mi, 51km
Updated: 12/11/2019 12:53pm
Clear
Clear
 Wind from NNE
Wind: NNE 9 mph , 15 km/h
Temperature: 55°F , 13°C
Dew Point: 37°F , 3°C
Humidity: 51%
Barometer: 30.45 inHg , 1031.2 hPa
Clouds: Clear
Visibility: 10 miles , 16 km
2019/12/11 18:53 KSGR 111853Z 03008KT 10SM CLR 13/03 A3045 RMK AO2 SLP312 T01330028
K6R3 - Cleveland Muni, Texas, USA
Distance from station: NE 36mi, 58km
Updated: 12/11/2019 12:55pm
Clear
Clear
 Wind from NE
Wind: NE 6 mph , 9 km/h
Temperature: 55°F , 13°C
Dew Point: 32°F , 0°C
Humidity: 41%
Barometer: 30.48 inHg , 1032.2 hPa
Clouds: Clear
Visibility: 10 miles , 16 km
2019/12/11 18:55 K6R3 111855Z AUTO 04005KT 10SM CLR 13/00 A3048 RMK AO2 T01250001
 
KAXH - Houston/Southwst, Texas, USA
Distance from station: S 37mi, 60km
Updated: 12/11/2019 12:55pm
Clear
Clear
 Wind from ENE
Wind: ENE 8 mph , 13 km/h
Temperature: 55°F , 13°C
Dew Point: 37°F , 3°C
Humidity: 51%
Barometer: 30.45 inHg , 1031.2 hPa
Clouds: Clear
Visibility: 10 miles , 16 km
2019/12/11 18:55 KAXH 111855Z AUTO 06007KT 10SM CLR 13/03 A3045 RMK AO2 T01320026
KEFD - Houston/Ellingto, Texas, USA
Distance from station: SSE 37mi, 60km
Updated: 12/11/2019 11:50am
NOT Current
Clear
Clear
 Wind from NE
Wind: NE 12 mph , 19 km/h
Temperature: 52°F , 11°C
Dew Point: 37°F , 3°C
Humidity: 58%
Barometer: 30.48 inHg , 1032.2 hPa
Clouds: Clear
Visibility: 10 miles , 16 km
2019/12/11 17:50 KEFD 111750Z 04010KT 10SM SKC 11/03 A3048
 
KLVJ - Houston, Texas, USA
Distance from station: SSE 40mi, 64km
Updated: 12/11/2019 12:53pm
Clear
Clear
 Wind from NE
Wind: NE 12 mph , 19 km/h
Temperature: 57°F , 14°C
Dew Point: 36°F , 2°C
Humidity: 44%
Barometer: 30.45 inHg , 1031.2 hPa
Clouds: Clear
Visibility: 10 miles , 16 km
2019/12/11 18:53 KLVJ 111853Z AUTO 04010KT 10SM CLR 14/02 A3045 RMK AO2 SLP311 T01390017
KUTS - Huntsville, Texas, USA
Distance from station: N 48mi, 78km
Updated: 12/11/2019 12:53pm
Clear
Clear
 Wind from calm
Wind: Calm
Temperature: 52°F , 11°C
Dew Point: 34°F , 1°C
Humidity: 50%
Barometer: 30.49 inHg , 1032.5 hPa
Clouds: Clear
Visibility: 10 miles , 16 km
2019/12/11 18:53 KUTS 111853Z AUTO 00000KT 10SM CLR 11/01 A3049 RMK AO2 SLP323 T01110011